Time;durP1;ratioP1;P1;durP2;ratioP2;P2;SDS_P1;SDS_P2;PMS_P1;PMS_P2;Temp;Humidity;BMP_temperature;BMP_pressure;BME280_temperature;BME280_humidity;BME280_pressure;Samples;Min_cycle;Max_cycle;Signal;HPM_P1;HPM_P2
2021/12/04 00:02:45;;;;;;;747.37;685.24;;;;;;;18.89;48.62;99298.95;;;;-52
2021/12/04 00:05:48;;;;;;;731.29;670.41;;;;;;;18.87;48.63;99302.79;;;;-54
2021/12/04 00:08:47;;;;;;;725.69;665.22;;;;;;;18.86;48.56;99298.73;;;;-53
2021/12/04 00:11:52;;;;;;;699.43;640.85;;;;;;;18.84;48.55;99282.94;;;;-53
2021/12/04 00:14:45;;;;;;;714.85;654.86;;;;;;;18.83;48.65;99275.00;;;;-53
2021/12/04 00:17:45;;;;;;;699.61;640.75;;;;;;;18.81;48.65;99276.56;;;;-53
2021/12/04 00:20:45;;;;;;;673.08;616.04;;;;;;;18.79;48.68;99276.17;;;;-52
2021/12/04 00:23:45;;;;;;;666.53;609.84;;;;;;;18.77;48.61;99269.08;;;;-51
2021/12/04 00:26:45;;;;;;;688.50;630.33;;;;;;;18.76;48.64;99261.96;;;;-51
2021/12/04 00:29:45;;;;;;;629.97;576.15;;;;;;;18.75;48.62;99248.73;;;;-52
2021/12/04 00:32:54;;;;;;;667.55;610.85;;;;;;;18.74;48.65;99245.83;;;;-53
2021/12/04 00:35:48;;;;;;;658.03;601.91;;;;;;;18.71;48.64;99233.13;;;;-53
2021/12/04 00:50:45;;;;;;;636.08;581.91;;;;;;;18.64;48.57;99189.47;;;;-51
2021/12/04 00:53:47;;;;;;;661.31;605.15;;;;;;;18.63;48.66;99184.59;;;;-51
2021/12/04 00:56:45;;;;;;;704.31;645.11;;;;;;;18.62;48.65;99177.31;;;;-50
2021/12/04 00:59:45;;;;;;;683.21;625.33;;;;;;;18.60;48.71;99177.10;;;;-52
2021/12/04 01:02:45;;;;;;;663.90;607.43;;;;;;;18.58;48.70;99172.33;;;;-51
2021/12/04 01:05:45;;;;;;;670.57;613.49;;;;;;;18.56;48.76;99167.55;;;;-52
2021/12/04 01:08:45;;;;;;;653.43;597.68;;;;;;;18.55;48.83;99165.72;;;;-53
2021/12/04 01:11:45;;;;;;;667.45;610.67;;;;;;;18.54;48.76;99156.80;;;;-52
2021/12/04 01:14:45;;;;;;;717.62;657.33;;;;;;;18.53;48.72;99160.87;;;;-52
2021/12/04 01:17:45;;;;;;;719.24;658.41;;;;;;;18.52;48.84;99166.47;;;;-53
2021/12/04 01:20:45;;;;;;;716.99;655.97;;;;;;;18.50;48.74;99166.41;;;;-53
2021/12/04 01:23:45;;;;;;;718.37;657.90;;;;;;;18.48;48.68;99167.22;;;;-53
2021/12/04 01:26:45;;;;;;;712.29;652.19;;;;;;;18.48;48.77;99169.75;;;;-53
2021/12/04 01:29:45;;;;;;;715.60;655.09;;;;;;;18.46;48.76;99169.02;;;;-53
2021/12/04 01:32:45;;;;;;;706.84;647.12;;;;;;;18.45;48.77;99161.92;;;;-51
2021/12/04 01:35:45;;;;;;;713.64;653.35;;;;;;;18.44;48.72;99159.09;;;;-51
2021/12/04 01:38:45;;;;;;;713.19;652.61;;;;;;;18.43;48.80;99150.83;;;;-51
2021/12/04 01:41:45;;;;;;;710.68;650.13;;;;;;;18.41;48.79;99148.48;;;;-52
2021/12/04 01:44:45;;;;;;;705.91;645.56;;;;;;;18.40;48.82;99145.50;;;;-51
2021/12/04 01:47:45;;;;;;;703.33;643.26;;;;;;;18.38;48.76;99142.50;;;;-52
2021/12/04 01:50:45;;;;;;;706.48;646.29;;;;;;;18.37;48.80;99135.80;;;;-52
2021/12/04 01:53:45;;;;;;;711.76;651.32;;;;;;;18.36;48.76;99126.97;;;;-51
2021/12/04 01:56:45;;;;;;;713.15;652.48;;;;;;;18.35;48.85;99119.37;;;;-51
2021/12/04 01:59:45;;;;;;;712.32;651.81;;;;;;;18.33;48.92;99115.48;;;;-53
2021/12/04 02:02:45;;;;;;;704.47;644.59;;;;;;;18.32;48.81;99113.22;;;;-53
2021/12/04 02:05:45;;;;;;;705.55;645.35;;;;;;;18.31;48.85;99105.30;;;;-53
2021/12/04 02:08:45;;;;;;;699.43;639.67;;;;;;;18.29;48.90;99097.76;;;;-53
2021/12/04 02:11:45;;;;;;;702.27;642.17;;;;;;;18.29;48.95;99096.31;;;;-53
2021/12/04 02:14:45;;;;;;;708.73;648.33;;;;;;;18.28;48.87;99095.58;;;;-51
2021/12/04 02:17:46;;;;;;;706.23;646.06;;;;;;;18.26;48.90;99101.13;;;;-51
2021/12/04 02:20:45;;;;;;;709.44;649.05;;;;;;;18.25;48.90;99093.66;;;;-52
2021/12/04 02:23:45;;;;;;;704.63;644.45;;;;;;;18.24;48.98;99094.42;;;;-52
2021/12/04 02:26:45;;;;;;;708.32;647.92;;;;;;;18.23;48.98;99096.92;;;;-52
2021/12/04 02:29:49;;;;;;;706.33;646.14;;;;;;;18.22;48.95;99097.91;;;;-52
2021/12/04 02:32:45;;;;;;;707.49;647.23;;;;;;;18.20;48.90;99087.25;;;;-52
2021/12/04 02:35:45;;;;;;;708.04;647.82;;;;;;;18.18;48.95;99074.55;;;;-53
2021/12/04 02:38:50;;;;;;;707.51;647.41;;;;;;;18.18;48.90;99069.02;;;;-51
2021/12/04 02:41:45;;;;;;;685.99;627.91;;;;;;;18.18;48.94;99064.55;;;;-51
2021/12/04 02:44:45;;;;;;;703.61;644.32;;;;;;;18.16;49.03;99050.23;;;;-52
2021/12/04 02:47:45;;;;;;;693.49;634.94;;;;;;;18.15;49.00;99037.90;;;;-51
2021/12/04 02:50:45;;;;;;;718.74;658.38;;;;;;;18.15;48.97;99033.03;;;;-52
2021/12/04 02:53:45;;;;;;;719.57;658.82;;;;;;;18.14;48.91;99025.85;;;;-53
2021/12/04 02:56:47;;;;;;;720.19;659.78;;;;;;;18.13;48.89;99019.22;;;;-51
2021/12/04 02:59:45;;;;;;;709.87;650.00;;;;;;;18.12;49.01;99012.17;;;;-50
2021/12/04 03:02:46;;;;;;;617.83;564.91;;;;;;;18.11;48.89;98999.93;;;;-51
2021/12/04 03:05:48;;;;;;;588.30;537.86;;;;;;;18.10;48.89;98989.67;;;;-52
2021/12/04 03:08:46;;;;;;;601.12;549.68;;;;;;;18.08;48.94;98979.22;;;;-52
2021/12/04 03:11:45;;;;;;;613.83;561.29;;;;;;;18.08;49.03;98977.59;;;;-52
2021/12/04 03:14:45;;;;;;;599.45;548.08;;;;;;;18.07;49.00;98973.73;;;;-52
2021/12/04 03:17:45;;;;;;;645.99;590.92;;;;;;;18.06;48.92;98970.17;;;;-52
2021/12/04 03:20:46;;;;;;;705.00;645.67;;;;;;;18.05;48.96;98965.55;;;;-53
2021/12/04 03:23:55;;;;;;;720.47;659.66;;;;;;;18.04;48.90;98961.52;;;;-53
2021/12/04 03:26:46;;;;;;;714.99;654.52;;;;;;;18.03;48.93;98958.77;;;;-53
2021/12/04 03:29:48;;;;;;;675.31;617.61;;;;;;;18.03;48.94;98951.06;;;;-53
2021/12/04 03:35:16;;;;;;;499.54;457.12;;;;;;;18.03;48.99;98938.44;;;;-54
2021/12/04 03:40:11;;;;;;;506.31;463.13;;;;;;;18.00;49.03;98928.27;;;;-51
2021/12/04 03:42:45;;;;;;;521.28;476.61;;;;;;;17.98;49.05;98923.34;;;;-51
2021/12/04 03:45:48;;;;;;;564.91;516.35;;;;;;;17.98;48.98;98922.61;;;;-52
2021/12/04 03:48:54;;;;;;;568.33;519.29;;;;;;;17.97;48.92;98910.78;;;;-52
2021/12/04 03:51:45;;;;;;;621.39;568.12;;;;;;;17.95;49.01;98904.00;;;;-52
2021/12/04 03:54:45;;;;;;;629.39;575.49;;;;;;;17.95;48.97;98900.18;;;;-52
2021/12/04 03:57:46;;;;;;;691.04;632.49;;;;;;;17.95;48.93;98887.63;;;;-52
2021/12/04 04:00:45;;;;;;;706.93;646.67;;;;;;;17.93;49.01;98882.79;;;;-52
2021/12/04 04:03:45;;;;;;;705.26;645.23;;;;;;;17.92;49.06;98877.05;;;;-52
2021/12/04 04:06:45;;;;;;;700.36;640.49;;;;;;;17.92;49.00;98881.59;;;;-52
2021/12/04 04:09:45;;;;;;;661.07;604.56;;;;;;;17.90;49.07;98880.31;;;;-52
2021/12/04 04:12:45;;;;;;;632.37;578.13;;;;;;;17.90;49.04;98877.01;;;;-52
2021/12/04 04:15:45;;;;;;;623.91;570.11;;;;;;;17.89;49.04;98867.95;;;;-52
2021/12/04 04:18:45;;;;;;;684.67;626.40;;;;;;;17.88;48.97;98862.19;;;;-52
2021/12/04 04:21:45;;;;;;;700.42;640.53;;;;;;;17.87;48.98;98861.40;;;;-53
2021/12/04 04:24:45;;;;;;;692.75;633.60;;;;;;;17.86;48.96;98858.64;;;;-52
2021/12/04 04:27:45;;;;;;;703.10;643.29;;;;;;;17.85;48.97;98858.27;;;;-51
2021/12/04 04:30:45;;;;;;;700.35;640.42;;;;;;;17.85;48.99;98855.28;;;;-51
2021/12/04 04:33:45;;;;;;;699.90;639.78;;;;;;;17.84;49.04;98849.03;;;;-50
2021/12/04 04:36:57;;;;;;;700.49;640.37;;;;;;;17.83;49.06;98841.94;;;;-53
2021/12/04 04:40:25;;;;;;;702.20;642.11;;;;;;;17.83;49.10;98837.88;;;;-51
2021/12/04 04:58:09;;;;;;;695.71;635.91;;;;;;;17.77;49.15;98816.76;;;;-52
2021/12/04 05:12:52;;;;;;;610.07;557.58;;;;;;;17.75;49.17;98807.01;;;;-51
2021/12/04 05:15:56;;;;;;;567.89;519.08;;;;;;;17.74;49.08;98803.52;;;;-51
2021/12/04 05:18:51;;;;;;;531.47;486.31;;;;;;;17.74;49.16;98803.84;;;;-51
2021/12/04 05:21:45;;;;;;;448.89;411.13;;;;;;;17.72;49.14;98806.94;;;;-51
2021/12/04 05:24:45;;;;;;;483.14;442.47;;;;;;;17.71;49.11;98803.07;;;;-51
2021/12/04 05:27:45;;;;;;;508.99;465.87;;;;;;;17.72;49.07;98802.33;;;;-51
2021/12/04 05:30:45;;;;;;;471.93;432.13;;;;;;;17.71;49.12;98801.14;;;;-51
2021/12/04 05:33:45;;;;;;;499.26;457.03;;;;;;;17.70;49.21;98792.33;;;;-51
2021/12/04 05:36:45;;;;;;;501.41;458.71;;;;;;;17.69;49.09;98793.38;;;;-51
2021/12/04 05:39:45;;;;;;;438.93;402.02;;;;;;;17.69;49.12;98792.23;;;;-51
2021/12/04 05:42:45;;;;;;;509.77;466.67;;;;;;;17.69;49.11;98786.98;;;;-52
2021/12/04 05:45:48;;;;;;;533.79;488.18;;;;;;;17.70;49.10;98782.75;;;;-52
2021/12/04 05:48:50;;;;;;;521.21;476.93;;;;;;;17.70;49.16;98770.60;;;;-52
2021/12/04 05:52:02;;;;;;;585.37;535.31;;;;;;;17.70;49.19;98769.97;;;;-52
2021/12/04 05:54:57;;;;;;;555.35;507.55;;;;;;;17.72;49.18;98770.73;;;;-52
2021/12/04 05:57:45;;;;;;;576.00;526.46;;;;;;;17.73;49.14;98769.98;;;;-52
2021/12/04 06:00:45;;;;;;;570.15;521.05;;;;;;;17.76;49.11;98773.19;;;;-52
2021/12/04 06:03:45;;;;;;;574.04;524.97;;;;;;;17.77;49.30;98765.97;;;;-52
2021/12/04 06:06:45;;;;;;;608.19;556.11;;;;;;;17.80;49.33;98769.58;;;;-52
2021/12/04 06:09:45;;;;;;;513.09;469.27;;;;;;;17.83;49.47;98767.64;;;;-52
2021/12/04 06:12:45;;;;;;;512.41;468.87;;;;;;;17.84;49.40;98762.64;;;;-52
2021/12/04 06:15:45;;;;;;;495.30;453.25;;;;;;;17.87;49.42;98754.45;;;;-52
2021/12/04 06:18:47;;;;;;;634.34;580.19;;;;;;;17.89;49.42;98750.29;;;;-52
2021/12/04 06:24:45;;;;;;;480.87;440.29;;;;;;;17.93;49.55;98741.56;;;;-52
2021/12/04 06:27:45;;;;;;;487.47;446.16;;;;;;;17.94;49.47;98733.58;;;;-52
2021/12/04 06:30:45;;;;;;;431.61;395.56;;;;;;;17.95;49.54;98729.61;;;;-52
2021/12/04 06:33:45;;;;;;;437.41;400.70;;;;;;;17.97;49.58;98728.77;;;;-52
2021/12/04 06:36:45;;;;;;;455.62;417.37;;;;;;;17.98;49.54;98720.24;;;;-51
2021/12/04 06:39:45;;;;;;;516.71;472.89;;;;;;;17.99;49.37;98720.46;;;;-52
2021/12/04 06:42:46;;;;;;;471.48;431.73;;;;;;;18.00;49.51;98720.93;;;;-52
2021/12/04 06:45:51;;;;;;;532.37;487.05;;;;;;;18.01;49.48;98719.63;;;;-52
2021/12/04 06:48:54;;;;;;;507.31;464.39;;;;;;;18.02;49.49;98714.59;;;;-52
2021/12/04 06:51:49;;;;;;;495.06;453.19;;;;;;;18.02;49.49;98723.09;;;;-52
2021/12/04 06:54:52;;;;;;;501.28;458.83;;;;;;;18.03;49.48;98722.92;;;;-52
2021/12/04 06:57:46;;;;;;;524.41;480.08;;;;;;;18.03;49.24;98718.04;;;;-52
2021/12/04 07:00:45;;;;;;;531.15;485.90;;;;;;;18.03;49.37;98721.21;;;;-52
2021/12/04 07:03:45;;;;;;;492.41;450.81;;;;;;;18.03;49.23;98720.58;;;;-52
2021/12/04 07:06:47;;;;;;;510.63;467.29;;;;;;;18.04;49.35;98716.92;;;;-52
2021/12/04 07:09:45;;;;;;;504.69;462.04;;;;;;;18.04;49.39;98720.70;;;;-52
2021/12/04 07:12:45;;;;;;;520.02;475.93;;;;;;;18.04;49.44;98714.96;;;;-53
2021/12/04 07:15:46;;;;;;;535.29;489.83;;;;;;;18.04;49.44;98714.80;;;;-52
2021/12/04 07:18:45;;;;;;;636.45;582.61;;;;;;;18.04;49.31;98717.73;;;;-52
2021/12/04 07:21:46;;;;;;;221.05;204.40;;;;;;;18.03;49.29;98708.31;;;;-52
2021/12/04 07:24:45;;;;;;;99.69;92.80;;;;;;;18.04;49.43;98706.87;;;;-52
2021/12/04 07:27:46;;;;;;;97.75;90.65;;;;;;;17.95;48.37;98707.65;;;;-53
2021/12/04 07:30:45;;;;;;;98.47;91.61;;;;;;;17.81;47.22;98712.28;;;;-53
2021/12/04 07:33:45;;;;;;;384.33;352.37;;;;;;;17.78;47.38;98706.81;;;;-49
2021/12/04 07:36:45;;;;;;;214.89;198.63;;;;;;;17.81;47.88;98704.35;;;;-51
2021/12/04 07:39:45;;;;;;;165.49;153.31;;;;;;;17.84;48.06;98699.72;;;;-53
2021/12/04 07:42:45;;;;;;;162.81;150.29;;;;;;;17.84;48.21;98702.20;;;;-49
2021/12/04 07:45:45;;;;;;;117.33;108.82;;;;;;;17.85;48.33;98694.52;;;;-51
2021/12/04 07:48:45;;;;;;;153.53;142.38;;;;;;;17.87;48.43;98693.27;;;;-58
2021/12/04 07:51:47;;;;;;;259.49;238.65;;;;;;;17.87;48.41;98694.17;;;;-61
2021/12/04 07:54:48;;;;;;;98.95;91.94;;;;;;;17.88;48.47;98700.22;;;;-60
2021/12/04 07:57:45;;;;;;;91.35;84.75;;;;;;;17.88;48.40;98690.80;;;;-55
2021/12/04 08:00:45;;;;;;;115.53;107.07;;;;;;;17.88;48.48;98689.83;;;;-55
2021/12/04 08:03:45;;;;;;;77.75;72.29;;;;;;;17.89;48.40;98688.70;;;;-59
2021/12/04 08:06:45;;;;;;;99.17;92.23;;;;;;;17.90;48.34;98689.17;;;;-50
2021/12/04 08:09:45;;;;;;;114.88;106.17;;;;;;;17.90;48.40;98680.98;;;;-48
2021/12/04 08:12:45;;;;;;;76.77;71.31;;;;;;;17.92;48.41;98677.48;;;;-50
2021/12/04 08:15:45;;;;;;;168.13;155.76;;;;;;;17.94;48.38;98676.80;;;;-48
2021/12/04 08:18:45;;;;;;;92.63;85.95;;;;;;;17.95;48.43;98673.27;;;;-48
2021/12/04 08:21:45;;;;;;;57.37;53.31;;;;;;;17.96;48.49;98671.40;;;;-48
2021/12/04 08:24:47;;;;;;;52.10;48.39;;;;;;;17.96;48.42;98668.55;;;;-48
2021/12/04 08:27:45;;;;;;;32.31;29.95;;;;;;;17.98;48.48;98667.33;;;;-48
2021/12/04 08:30:45;;;;;;;22.73;21.07;;;;;;;17.98;48.52;98671.62;;;;-49
2021/12/04 08:33:45;;;;;;;34.24;31.86;;;;;;;17.98;48.50;98674.14;;;;-48
2021/12/04 08:36:45;;;;;;;29.26;27.17;;;;;;;17.98;48.50;98669.27;;;;-49
2021/12/04 08:39:45;;;;;;;27.07;25.08;;;;;;;17.98;48.55;98667.81;;;;-49
2021/12/04 08:42:45;;;;;;;23.18;21.51;;;;;;;17.97;48.53;98663.30;;;;-49
2021/12/04 08:45:45;;;;;;;26.27;24.35;;;;;;;17.98;48.55;98664.81;;;;-48
2021/12/04 08:48:45;;;;;;;27.54;25.61;;;;;;;17.97;48.52;98661.41;;;;-48
2021/12/04 08:51:45;;;;;;;27.31;25.37;;;;;;;17.97;48.60;98661.25;;;;-48
2021/12/04 08:54:45;;;;;;;29.42;27.16;;;;;;;17.97;48.57;98660.27;;;;-48
2021/12/04 08:57:45;;;;;;;28.96;26.95;;;;;;;17.96;48.63;98656.41;;;;-48
2021/12/04 09:00:48;;;;;;;23.83;21.97;;;;;;;17.97;48.59;98658.91;;;;-48
2021/12/04 09:03:45;;;;;;;23.62;21.94;;;;;;;17.96;48.59;98657.16;;;;-54
2021/12/04 09:06:45;;;;;;;38.91;36.18;;;;;;;17.95;48.65;98649.78;;;;-54
2021/12/04 09:09:45;;;;;;;32.15;29.88;;;;;;;17.95;48.63;98649.21;;;;-53
2021/12/04 09:12:45;;;;;;;32.72;30.45;;;;;;;17.95;48.63;98643.86;;;;-54
2021/12/04 09:15:45;;;;;;;42.57;39.57;;;;;;;17.93;48.71;98641.39;;;;-48
2021/12/04 09:18:45;;;;;;;40.71;37.87;;;;;;;17.93;48.64;98640.59;;;;-48
2021/12/04 09:21:46;;;;;;;47.83;44.44;;;;;;;17.93;48.66;98642.11;;;;-48
2021/12/04 09:24:48;;;;;;;44.26;41.16;;;;;;;17.92;48.69;98637.75;;;;-48
2021/12/04 09:28:08;;;;;;;19.97;18.51;;;;;;;17.92;48.67;98632.73;;;;-48
2021/12/04 09:35:10;;;;;;;37.08;34.50;;;;;;;17.90;48.76;98637.70;;;;-49
2021/12/04 10:02:02;;;;;;;69.44;64.53;;;;;;;17.85;48.72;98597.79;;;;-50
2021/12/04 10:13:22;;;;;;;84.19;78.31;;;;;;;17.85;48.81;98584.33;;;;-48
2021/12/04 10:19:56;;;;;;;74.58;69.22;;;;;;;17.92;49.13;98576.01;;;;-48
2021/12/04 10:22:49;;;;;;;81.18;75.52;;;;;;;17.99;49.33;98563.41;;;;-48
2021/12/04 10:32:55;;;;;;;68.95;64.10;;;;;;;18.21;49.75;98555.38;;;;-50
2021/12/04 10:35:45;;;;;;;65.00;60.41;;;;;;;18.28;49.77;98550.14;;;;-49
2021/12/04 10:38:45;;;;;;;62.65;58.21;;;;;;;18.33;49.53;98544.22;;;;-52
2021/12/04 10:41:45;;;;;;;61.84;57.24;;;;;;;18.36;49.56;98532.31;;;;-52
2021/12/04 10:44:49;;;;;;;72.08;66.91;;;;;;;18.42;49.63;98525.86;;;;-51
2021/12/04 10:47:45;;;;;;;64.58;59.91;;;;;;;18.46;49.69;98515.25;;;;-51
2021/12/04 10:50:52;;;;;;;61.13;56.65;;;;;;;18.51;49.79;98506.95;;;;-47
2021/12/04 10:53:49;;;;;;;69.20;64.31;;;;;;;18.57;49.85;98498.61;;;;-51
2021/12/04 10:57:05;;;;;;;76.92;71.37;;;;;;;18.59;49.53;98496.72;;;;-47
2021/12/04 10:59:53;;;;;;;99.21;92.27;;;;;;;18.63;49.33;98491.73;;;;-52
2021/12/04 11:02:49;;;;;;;180.85;167.23;;;;;;;18.63;49.16;98483.55;;;;-52
2021/12/04 11:19:00;;;;;;;116.89;108.19;;;;;;;18.70;48.25;98457.15;;;;-53
2021/12/04 11:21:59;;;;;;;130.83;121.10;;;;;;;18.73;48.89;98454.13;;;;-52
2021/12/04 11:25:12;;;;;;;198.86;183.46;;;;;;;18.77;49.12;98451.69;;;;-51
2021/12/04 11:34:55;;;;;;;104.23;96.71;;;;;;;18.81;48.96;98448.00;;;;-54
2021/12/04 11:38:48;;;;;;;88.55;82.07;;;;;;;18.94;49.19;98445.41;;;;-56
2021/12/04 11:41:56;;;;;;;78.21;72.55;;;;;;;18.99;49.33;98435.16;;;;-48
2021/12/04 11:44:52;;;;;;;80.51;74.77;;;;;;;19.06;49.34;98432.05;;;;-49
2021/12/04 11:47:45;;;;;;;67.93;62.79;;;;;;;19.10;49.49;98424.06;;;;-56
2021/12/04 11:50:45;;;;;;;87.00;80.88;;;;;;;19.16;49.32;98418.48;;;;-46
2021/12/04 11:53:45;;;;;;;100.91;93.69;;;;;;;19.20;49.36;98411.84;;;;-53
2021/12/04 11:56:45;;;;;;;84.79;78.72;;;;;;;19.23;49.27;98402.81;;;;-50
2021/12/04 11:59:45;;;;;;;257.19;237.77;;;;;;;19.25;49.27;98399.41;;;;-49
2021/12/04 12:02:45;;;;;;;227.80;210.93;;;;;;;19.29;49.32;98394.67;;;;-52
2021/12/04 12:05:45;;;;;;;250.50;231.87;;;;;;;19.34;49.28;98389.04;;;;-50
2021/12/04 12:08:45;;;;;;;237.55;219.88;;;;;;;19.35;48.91;98387.88;;;;-51
2021/12/04 12:11:45;;;;;;;268.04;247.75;;;;;;;19.35;48.87;98383.49;;;;-52
2021/12/04 12:14:49;;;;;;;211.37;195.44;;;;;;;19.34;48.93;98381.16;;;;-51
2021/12/04 12:17:45;;;;;;;264.72;244.64;;;;;;;19.35;48.88;98378.45;;;;-51
2021/12/04 12:20:49;;;;;;;156.02;144.64;;;;;;;19.36;48.86;98377.28;;;;-57
2021/12/04 12:24:11;;;;;;;205.30;189.83;;;;;;;19.37;48.85;98376.11;;;;-57
2021/12/04 12:27:03;;;;;;;317.48;292.47;;;;;;;19.38;48.82;98369.28;;;;-59
2021/12/04 12:32:53;;;;;;;117.61;109.33;;;;;;;19.43;48.78;98360.86;;;;-51
2021/12/04 12:38:45;;;;;;;92.76;86.13;;;;;;;19.47;48.75;98350.91;;;;-51
2021/12/04 12:41:45;;;;;;;97.43;90.53;;;;;;;19.49;48.74;98349.65;;;;-52
2021/12/04 12:44:45;;;;;;;123.94;115.21;;;;;;;19.51;48.68;98347.23;;;;-52
2021/12/04 12:47:45;;;;;;;109.56;101.91;;;;;;;19.51;48.68;98341.14;;;;-52
2021/12/04 12:50:46;;;;;;;135.06;125.41;;;;;;;19.52;48.66;98324.20;;;;-57
2021/12/04 12:53:45;;;;;;;144.93;134.39;;;;;;;19.54;48.68;98332.06;;;;-56
2021/12/04 12:56:46;;;;;;;125.89;117.03;;;;;;;19.53;48.70;98330.69;;;;-59
2021/12/04 13:11:35;;;;;;;153.52;142.35;;;;;;;19.55;48.69;98320.00;;;;-60
2021/12/04 13:11:47;;;;;;;162.33;150.38;;;;;;;19.61;48.71;98312.11;;;;-51
2021/12/04 13:14:45;;;;;;;145.77;135.13;;;;;;;19.62;48.68;98313.21;;;;-59
2021/12/04 13:17:45;;;;;;;117.78;109.45;;;;;;;19.63;48.65;98310.83;;;;-57
2021/12/04 13:20:45;;;;;;;122.42;113.75;;;;;;;19.66;48.63;98309.36;;;;-57
2021/12/04 13:23:45;;;;;;;150.07;139.23;;;;;;;19.67;48.64;98303.81;;;;-57
2021/12/04 13:26:45;;;;;;;157.81;146.34;;;;;;;19.68;48.65;98296.37;;;;-57
2021/12/04 13:29:45;;;;;;;210.59;194.93;;;;;;;19.71;48.61;98297.16;;;;-57
2021/12/04 13:32:45;;;;;;;229.33;212.40;;;;;;;19.72;48.59;98296.66;;;;-57
2021/12/04 13:35:46;;;;;;;144.40;133.96;;;;;;;19.73;48.56;98293.08;;;;-57
2021/12/04 13:38:45;;;;;;;158.04;146.55;;;;;;;19.74;48.56;98296.57;;;;-57
2021/12/04 13:41:45;;;;;;;211.05;195.45;;;;;;;19.76;48.55;98300.59;;;;-57
2021/12/04 13:44:45;;;;;;;458.24;420.24;;;;;;;19.76;48.58;98299.18;;;;-57
2021/12/04 13:47:45;;;;;;;385.47;354.91;;;;;;;19.77;48.55;98297.28;;;;-56
2021/12/04 13:50:48;;;;;;;411.59;378.29;;;;;;;19.82;48.55;98297.47;;;;-55
2021/12/04 13:53:45;;;;;;;399.77;367.61;;;;;;;19.85;48.86;98302.33;;;;-56
2021/12/04 13:56:45;;;;;;;392.51;361.04;;;;;;;19.87;48.96;98306.23;;;;-57
2021/12/04 13:59:45;;;;;;;320.01;295.45;;;;;;;19.91;49.01;98309.72;;;;-56
2021/12/04 14:02:45;;;;;;;340.53;314.19;;;;;;;19.93;49.03;98303.80;;;;-53
2021/12/04 14:05:45;;;;;;;357.89;329.75;;;;;;;19.99;49.04;98310.95;;;;-57
2021/12/04 14:08:45;;;;;;;339.45;313.05;;;;;;;19.99;48.69;98303.39;;;;-51
2021/12/04 14:11:45;;;;;;;329.90;304.43;;;;;;;19.99;48.64;98312.66;;;;-51
2021/12/04 14:14:45;;;;;;;331.25;305.51;;;;;;;19.99;48.54;98317.46;;;;-50
2021/12/04 14:17:45;;;;;;;316.89;292.59;;;;;;;19.99;48.50;98315.34;;;;-51
2021/12/04 14:20:45;;;;;;;372.00;342.38;;;;;;;19.99;48.50;98325.91;;;;-51
2021/12/04 14:23:45;;;;;;;328.56;303.19;;;;;;;19.98;48.49;98333.64;;;;-51
2021/12/04 14:26:45;;;;;;;321.16;296.68;;;;;;;19.98;48.47;98324.94;;;;-51
2021/12/04 14:29:46;;;;;;;340.93;314.31;;;;;;;19.98;48.46;98326.09;;;;-51
2021/12/04 14:32:51;;;;;;;336.75;310.57;;;;;;;19.98;48.50;98341.38;;;;-51
2021/12/04 14:35:45;;;;;;;290.01;268.17;;;;;;;19.97;48.52;98341.56;;;;-51
2021/12/04 14:38:47;;;;;;;314.76;290.74;;;;;;;19.98;48.51;98366.64;;;;-51
2021/12/04 14:41:45;;;;;;;263.56;243.88;;;;;;;19.98;48.51;98368.50;;;;-51
2021/12/04 14:44:45;;;;;;;355.45;327.09;;;;;;;20.03;48.82;98352.63;;;;-50
2021/12/04 14:47:45;;;;;;;302.03;278.98;;;;;;;20.05;49.24;98342.88;;;;-51
2021/12/04 14:50:45;;;;;;;305.91;282.37;;;;;;;20.08;49.40;98327.41;;;;-53
2021/12/04 14:53:45;;;;;;;289.09;267.23;;;;;;;20.08;48.78;98292.59;;;;-46
2021/12/04 14:56:45;;;;;;;308.85;285.38;;;;;;;20.07;48.26;98278.49;;;;-46
2021/12/04 14:59:45;;;;;;;334.35;308.49;;;;;;;20.07;48.28;98300.94;;;;-46
2021/12/04 15:02:45;;;;;;;346.46;319.29;;;;;;;20.07;48.08;98312.80;;;;-46
2021/12/04 15:05:45;;;;;;;343.69;316.86;;;;;;;20.07;47.97;98312.64;;;;-49
2021/12/04 15:08:46;;;;;;;376.52;346.42;;;;;;;20.07;48.01;98301.12;;;;-49
2021/12/04 15:11:45;;;;;;;440.64;404.56;;;;;;;20.07;48.11;98305.41;;;;-49
2021/12/04 15:14:45;;;;;;;398.85;366.49;;;;;;;20.07;47.84;98322.23;;;;-49
2021/12/04 15:17:45;;;;;;;317.31;293.03;;;;;;;20.08;47.87;98322.47;;;;-49
2021/12/04 15:20:48;;;;;;;437.40;401.59;;;;;;;20.07;47.75;98322.33;;;;-49
2021/12/04 15:23:45;;;;;;;415.97;382.14;;;;;;;20.08;47.82;98327.48;;;;-56
2021/12/04 15:26:45;;;;;;;417.65;383.43;;;;;;;20.08;47.79;98334.08;;;;-57
2021/12/04 15:29:45;;;;;;;489.20;448.77;;;;;;;20.09;47.74;98335.04;;;;-57
2021/12/04 15:32:45;;;;;;;412.69;379.06;;;;;;;20.09;47.83;98338.69;;;;-52
2021/12/04 15:35:49;;;;;;;394.24;362.57;;;;;;;20.10;47.88;98338.80;;;;-51
2021/12/04 15:38:49;;;;;;;423.87;389.21;;;;;;;20.09;47.67;98336.31;;;;-49
2021/12/04 15:41:57;;;;;;;392.75;361.05;;;;;;;20.11;47.63;98336.93;;;;-51
2021/12/04 15:55:45;;;;;;;245.75;227.55;;;;;;;20.20;48.54;98351.95;;;;-52
2021/12/04 15:58:45;;;;;;;249.27;230.71;;;;;;;20.25;48.60;98346.18;;;;-53
2021/12/04 16:01:45;;;;;;;293.01;270.92;;;;;;;20.26;48.67;98350.59;;;;-51
2021/12/04 16:04:46;;;;;;;331.05;305.59;;;;;;;20.30;48.76;98350.42;;;;-54
2021/12/04 16:07:45;;;;;;;379.43;349.13;;;;;;;20.33;48.70;98354.45;;;;-56
2021/12/04 16:10:45;;;;;;;415.63;381.57;;;;;;;20.37;48.74;98364.92;;;;-57
2021/12/04 16:13:49;;;;;;;397.57;364.99;;;;;;;20.40;48.72;98368.72;;;;-50
2021/12/04 16:16:45;;;;;;;404.31;371.43;;;;;;;20.42;48.72;98375.75;;;;-52
2021/12/04 16:19:50;;;;;;;431.76;396.39;;;;;;;20.45;48.74;98382.90;;;;-49
2021/12/04 16:22:46;;;;;;;426.84;391.93;;;;;;;20.45;48.74;98387.75;;;;-54
2021/12/04 16:25:48;;;;;;;465.07;426.63;;;;;;;20.47;48.63;98378.09;;;;-51
2021/12/04 16:29:02;;;;;;;497.19;456.01;;;;;;;20.49;48.72;98383.23;;;;-51
2021/12/04 16:31:55;;;;;;;485.72;445.70;;;;;;;20.52;48.80;98380.31;;;;-54
2021/12/04 16:37:47;;;;;;;420.46;386.06;;;;;;;20.53;48.30;98386.89;;;;-51
2021/12/04 16:40:45;;;;;;;488.23;447.81;;;;;;;20.53;48.38;98386.30;;;;-52
2021/12/04 16:43:47;;;;;;;481.41;441.44;;;;;;;20.55;48.55;98382.81;;;;-51
2021/12/04 16:46:47;;;;;;;523.96;480.54;;;;;;;20.55;48.42;98386.32;;;;-54
2021/12/04 16:49:47;;;;;;;437.68;401.77;;;;;;;20.53;48.36;98391.11;;;;-52
2021/12/04 16:56:04;;;;;;;355.78;327.79;;;;;;;20.50;48.41;98398.61;;;;-53
2021/12/04 16:58:45;;;;;;;311.65;287.94;;;;;;;20.52;48.43;98406.60;;;;-51
2021/12/04 17:01:45;;;;;;;337.98;311.56;;;;;;;20.50;48.32;98411.36;;;;-48
2021/12/04 17:04:45;;;;;;;361.44;332.93;;;;;;;20.49;48.27;98414.24;;;;-52
2021/12/04 17:07:45;;;;;;;326.52;301.38;;;;;;;20.49;48.35;98423.52;;;;-51
2021/12/04 17:10:45;;;;;;;348.79;321.54;;;;;;;20.52;48.47;98428.08;;;;-49
2021/12/04 17:13:45;;;;;;;319.33;294.83;;;;;;;20.53;48.67;98431.63;;;;-60
2021/12/04 17:16:46;;;;;;;253.53;234.64;;;;;;;20.56;48.80;98426.64;;;;-58
2021/12/04 17:19:46;;;;;;;275.67;254.66;;;;;;;20.56;48.80;98435.26;;;;-52
2021/12/04 17:22:46;;;;;;;262.81;243.24;;;;;;;20.58;48.80;98446.20;;;;-53
2021/12/04 17:25:45;;;;;;;251.73;232.84;;;;;;;20.59;48.38;98452.88;;;;-53
2021/12/04 17:28:45;;;;;;;276.91;256.15;;;;;;;20.59;48.46;98460.30;;;;-57
2021/12/04 17:31:45;;;;;;;282.81;261.64;;;;;;;20.60;48.62;98470.64;;;;-54
2021/12/04 17:34:45;;;;;;;283.32;262.05;;;;;;;20.62;48.65;98486.81;;;;-57
2021/12/04 17:37:46;;;;;;;284.68;263.43;;;;;;;20.62;48.61;98505.18;;;;-52
2021/12/04 17:40:46;;;;;;;317.20;292.95;;;;;;;20.63;48.76;98516.56;;;;-51
2021/12/04 17:43:45;;;;;;;322.80;297.65;;;;;;;20.65;48.69;98519.75;;;;-57
2021/12/04 17:46:45;;;;;;;334.88;309.06;;;;;;;20.66;48.74;98531.52;;;;-59
2021/12/04 17:49:45;;;;;;;402.89;370.42;;;;;;;20.68;48.79;98544.72;;;;-53
2021/12/04 17:52:45;;;;;;;355.91;328.01;;;;;;;20.68;48.53;98555.69;;;;-51
2021/12/04 17:55:45;;;;;;;379.42;349.20;;;;;;;20.67;48.74;98572.69;;;;-58
2021/12/04 17:58:45;;;;;;;426.49;391.60;;;;;;;20.64;47.77;98572.92;;;;-57
2021/12/04 18:01:47;;;;;;;442.38;405.63;;;;;;;20.64;48.26;98573.83;;;;-54
2021/12/04 18:04:45;;;;;;;497.02;455.73;;;;;;;20.64;48.29;98584.41;;;;-54
2021/12/04 18:07:45;;;;;;;431.63;396.13;;;;;;;20.63;48.07;98592.08;;;;-57
2021/12/04 18:10:45;;;;;;;473.40;434.20;;;;;;;20.62;47.87;98597.48;;;;-57
2021/12/04 18:13:45;;;;;;;406.23;373.04;;;;;;;20.63;47.48;98609.89;;;;-56
2021/12/04 18:16:48;;;;;;;399.69;366.91;;;;;;;20.64;47.91;98623.36;;;;-56
2021/12/04 18:19:45;;;;;;;442.11;405.49;;;;;;;20.67;48.12;98642.17;;;;-57
2021/12/04 18:22:45;;;;;;;440.38;403.63;;;;;;;20.71;48.21;98651.91;;;;-52
2021/12/04 18:25:45;;;;;;;414.66;380.62;;;;;;;20.72;48.24;98662.64;;;;-48
2021/12/04 18:28:45;;;;;;;432.97;397.40;;;;;;;20.74;48.18;98674.21;;;;-52
2021/12/04 18:31:45;;;;;;;397.68;365.39;;;;;;;20.73;47.96;98672.13;;;;-50
2021/12/04 18:34:45;;;;;;;403.30;370.56;;;;;;;20.71;47.99;98670.88;;;;-51